Time;durP1;ratioP1;P1;durP2;ratioP2;P2;SDS_P1;SDS_P2;PMS_P1;PMS_P2;Temp;Humidity;BMP_temperature;BMP_pressure;BME280_temperature;BME280_humidity;BME280_pressure;Samples;Min_cycle;Max_cycle;Signal;HPM_P1;HPM_P2
2023/06/10 00:06:36;;;;;;;;;;;;;;;8.75;67.99;102606.28;5241978;22;19934;-64
2023/06/10 00:09:04;;;;;;;;;;;;;;;8.67;67.19;102598.81;5075456;28;19924;-63
2023/06/10 00:11:30;;;;;;;;;;;;;;;8.57;68.76;102603.91;5075235;28;20023;-65
2023/06/10 00:13:55;;;;;;;;;;;;;;;8.51;69.48;102608.81;5075277;28;20007;-64
2023/06/10 00:16:20;;;;;;;;;;;;;;;8.47;68.45;102612.63;5075475;28;19920;-63
2023/06/10 00:18:46;;;;;;;;;;;;;;;8.41;70.08;102613.91;5075557;28;20011;-64
2023/06/10 00:21:13;;;;;;;;;;;;;;;8.38;69.12;102612.31;5075138;28;19927;-63
2023/06/10 00:23:38;;;;;;;;;;;;;;;8.33;69.49;102610.84;5075450;28;19920;-64
2023/06/10 00:26:04;;;;;;;;;;;;;;;8.28;70.03;102616.47;5075430;28;20019;-63
2023/06/10 00:28:29;;;;;;;;;;;;;;;8.26;70.54;102626.34;5074762;28;20078;-64
2023/06/10 00:30:55;;;;;;;;;;;;;;;8.25;70.84;102624.66;5074247;28;20395;-63
2023/06/10 00:33:21;;;;;;;;;;;;;;;8.24;70.86;102624.75;5075854;28;19921;-63
2023/06/10 00:35:46;;;;;;;;;;;;;;;8.23;71.00;102631.00;5074740;28;19920;-64
2023/06/10 00:38:13;;;;;;;;;;;;;;;8.19;72.70;102640.13;5074881;28;19926;-64
2023/06/10 00:40:39;;;;;;;;;;;;;;;8.15;71.88;102634.19;5074762;28;20386;-65
2023/06/10 00:43:04;;;;;;;;;;;;;;;8.08;72.59;102635.50;5074714;28;19920;-65
2023/06/10 00:45:30;;;;;;;;;;;;;;;8.07;72.24;102636.47;5074386;28;20010;-65
2023/06/10 00:47:55;;;;;;;;;;;;;;;8.05;72.62;102638.38;5074909;28;19926;-62
2023/06/10 00:50:21;;;;;;;;;;;;;;;8.01;73.33;102636.88;5074968;28;20297;-64
2023/06/10 00:52:48;;;;;;;;;;;;;;;8.01;73.00;102642.19;5074562;28;19920;-64
2023/06/10 00:55:14;;;;;;;;;;;;;;;7.98;73.35;102648.53;5074298;28;19928;-62
2023/06/10 00:57:40;;;;;;;;;;;;;;;8.01;72.51;102652.78;5074305;28;19920;-65
2023/06/10 01:00:07;;;;;;;;;;;;;;;8.01;72.15;102658.09;5074826;28;19928;-63
2023/06/10 01:02:33;;;;;;;;;;;;;;;7.99;73.66;102649.38;5074424;28;19927;-64
2023/06/10 01:04:59;;;;;;;;;;;;;;;7.95;73.97;102656.69;5074260;28;19920;-63
2023/06/10 01:07:32;;;;;;;;;;;;;;;7.97;74.34;102654.81;5074478;28;19924;-65
2023/06/10 01:10:13;;;;;;;;;;;;;;;7.92;74.98;102658.72;5075035;28;19924;-64
2023/06/10 01:12:48;;;;;;;;;;;;;;;7.86;75.95;102659.97;5074221;28;19974;-63
2023/06/10 01:15:17;;;;;;;;;;;;;;;7.86;74.64;102665.25;5075199;28;19921;-63
2023/06/10 01:18:02;;;;;;;;;;;;;;;7.85;73.58;102657.41;5075733;28;19921;-63
2023/06/10 01:20:28;;;;;;;;;;;;;;;7.83;74.91;102665.47;5075039;28;19925;-64
2023/06/10 01:22:57;;;;;;;;;;;;;;;7.82;74.79;102662.91;5073983;28;20409;-64
2023/06/10 01:25:27;;;;;;;;;;;;;;;7.83;76.16;102669.91;5073964;28;19920;-65
2023/06/10 01:27:54;;;;;;;;;;;;;;;7.81;75.79;102666.50;5073580;28;19924;-64
2023/06/10 01:30:23;;;;;;;;;;;;;;;7.81;74.63;102667.38;5073903;28;19948;-63
2023/06/10 01:32:50;;;;;;;;;;;;;;;7.78;77.46;102673.69;5055791;28;20341;-64
2023/06/10 01:35:16;;;;;;;;;;;;;;;7.74;77.44;102674.84;5073862;28;19928;-64
2023/06/10 01:37:45;;;;;;;;;;;;;;;7.77;77.33;102671.13;5073899;28;19920;-64
2023/06/10 01:40:11;;;;;;;;;;;;;;;7.80;76.68;102670.09;5072897;28;20327;-64
2023/06/10 01:42:37;;;;;;;;;;;;;;;7.78;77.16;102668.38;5073081;28;20444;-62
2023/06/10 01:45:02;;;;;;;;;;;;;;;7.76;77.83;102680.03;5074853;28;19942;-65
2023/06/10 01:47:29;;;;;;;;;;;;;;;7.77;77.41;102679.09;5073746;28;20452;-64
2023/06/10 01:49:54;;;;;;;;;;;;;;;7.76;77.04;102686.19;5073455;28;19964;-63
2023/06/10 01:52:19;;;;;;;;;;;;;;;7.83;76.36;102691.13;5073428;28;19973;-63
2023/06/10 01:54:45;;;;;;;;;;;;;;;7.85;75.75;102689.25;5055030;28;20017;-63
2023/06/10 01:57:10;;;;;;;;;;;;;;;7.86;75.93;102690.94;5073170;28;19927;-63
2023/06/10 01:59:37;;;;;;;;;;;;;;;7.85;77.84;102699.84;5073110;28;19974;-64
2023/06/10 02:02:03;;;;;;;;;;;;;;;7.76;79.43;102701.25;5071875;28;19928;-64
2023/06/10 02:04:28;;;;;;;;;;;;;;;7.68;80.00;102704.41;5072033;28;20302;-63
2023/06/10 02:06:55;;;;;;;;;;;;;;;7.66;79.57;102711.63;5073663;28;20006;-63
2023/06/10 02:09:20;;;;;;;;;;;;;;;7.66;79.85;102716.91;5073095;28;19924;-63
2023/06/10 02:11:46;;;;;;;;;;;;;;;7.64;80.57;102716.16;5072957;28;19924;-63
2023/06/10 02:14:11;;;;;;;;;;;;;;;7.65;80.47;102714.38;5072665;28;19943;-63
2023/06/10 02:16:36;;;;;;;;;;;;;;;7.65;80.72;102717.00;5072841;28;19920;-65
2023/06/10 02:19:03;;;;;;;;;;;;;;;7.68;80.24;102715.00;5072759;28;20390;-64
2023/06/10 02:21:28;;;;;;;;;;;;;;;7.70;81.23;102718.41;5073956;28;19927;-62
2023/06/10 02:23:53;;;;;;;;;;;;;;;7.72;81.22;102721.81;5072873;28;19920;-62
2023/06/10 02:26:19;;;;;;;;;;;;;;;7.72;81.80;102728.94;5072789;28;20376;-63
2023/06/10 02:28:45;;;;;;;;;;;;;;;7.68;81.50;102724.78;5072765;28;19920;-64
2023/06/10 02:31:10;;;;;;;;;;;;;;;7.69;81.45;102724.69;5072579;28;19927;-63
2023/06/10 02:33:39;;;;;;;;;;;;;;;7.73;81.48;102727.97;5072390;28;19920;-62
2023/06/10 02:36:05;;;;;;;;;;;;;;;7.77;81.09;102724.19;5054588;28;19928;-63
2023/06/10 02:38:30;;;;;;;;;;;;;;;7.80;81.46;102725.78;5072580;28;19920;-64
2023/06/10 02:40:55;;;;;;;;;;;;;;;7.85;80.64;102737.00;5072502;28;19960;-64
2023/06/10 02:43:21;;;;;;;;;;;;;;;7.89;80.73;102728.72;5072669;28;20380;-63
2023/06/10 02:45:46;;;;;;;;;;;;;;;7.95;80.67;102738.09;5072575;28;19946;-64
2023/06/10 02:48:11;;;;;;;;;;;;;;;8.01;80.77;102745.66;5072510;28;19920;-64
2023/06/10 02:50:38;;;;;;;;;;;;;;;8.16;81.42;102747.34;5054431;28;19920;-63
2023/06/10 02:53:04;;;;;;;;;;;;;;;8.87;79.58;102749.75;5072582;28;19920;-63
2023/06/10 02:55:30;;;;;;;;;;;;;;;10.83;74.68;102755.28;5054493;28;20388;-64
2023/06/10 02:57:55;;;;;;;;;;;;;;;13.06;64.09;102762.28;5072410;28;20599;-63
2023/06/10 03:00:21;;;;;;;;;;;;;;;14.62;56.16;102757.41;5072265;28;20019;-65
2023/06/10 03:02:46;;;;;;;;;;;;;;;15.63;51.41;102767.59;5072252;28;19921;-64
2023/06/10 03:05:13;;;;;;;;;;;;;;;16.25;49.95;102771.41;5072290;28;19925;-63
2023/06/10 03:07:39;;;;;;;;;;;;;;;16.92;46.25;102772.75;5072852;28;19970;-63
2023/06/10 03:10:04;;;;;;;;;;;;;;;17.02;47.00;102773.50;5072810;28;19928;-64
2023/06/10 03:12:30;;;;;;;;;;;;;;;17.30;46.42;102776.06;5072303;28;20298;-64
2023/06/10 03:14:55;;;;;;;;;;;;;;;17.10;45.09;102775.44;5071999;28;19927;-65
2023/06/10 03:17:21;;;;;;;;;;;;;;;16.98;45.90;102776.66;5072022;28;20444;-63
2023/06/10 03:19:46;;;;;;;;;;;;;;;17.12;45.46;102783.34;5072024;28;20567;-64
2023/06/10 03:22:15;;;;;;;;;;;;;;;17.37;45.18;102782.53;5072334;28;19920;-64
2023/06/10 03:24:40;;;;;;;;;;;;;;;17.57;43.94;102781.28;5072303;28;19920;-64
2023/06/10 03:27:10;;;;;;;;;;;;;;;17.64;43.42;102785.06;5072264;28;19920;-64
2023/06/10 03:29:36;;;;;;;;;;;;;;;17.87;43.71;102779.09;5072158;28;19928;-64
2023/06/10 03:32:02;;;;;;;;;;;;;;;18.08;43.08;102787.63;5054119;28;19943;-64
2023/06/10 03:34:27;;;;;;;;;;;;;;;17.65;43.58;102786.75;5053981;28;20387;-65
2023/06/10 03:36:53;;;;;;;;;;;;;;;16.19;46.71;102784.56;5071881;28;19928;-63
2023/06/10 03:39:18;;;;;;;;;;;;;;;16.01;48.45;102781.84;5072322;28;19921;-64
2023/06/10 03:41:43;;;;;;;;;;;;;;;17.10;45.46;102790.75;5072071;28;19920;-64
2023/06/10 03:44:08;;;;;;;;;;;;;;;17.98;43.89;102796.88;5053965;28;19931;-64
2023/06/10 03:46:34;;;;;;;;;;;;;;;18.44;42.14;102792.78;5071916;28;19920;-63
2023/06/10 03:49:00;;;;;;;;;;;;;;;19.02;41.68;102794.56;5071820;28;19966;-64
2023/06/10 03:51:26;;;;;;;;;;;;;;;19.30;40.74;102795.91;5071664;28;19921;-64
2023/06/10 03:53:51;;;;;;;;;;;;;;;19.29;39.86;102802.31;5071968;28;20386;-62
2023/06/10 03:56:16;;;;;;;;;;;;;;;19.28;40.71;102803.34;5054441;28;19966;-63
2023/06/10 03:58:41;;;;;;;;;;;;;;;19.38;39.65;102804.03;5071845;28;19920;-64
2023/06/10 04:01:07;;;;;;;;;;;;;;;19.35;40.04;102814.31;5071997;28;20326;-64
2023/06/10 04:03:33;;;;;;;;;;;;;;;19.21;40.43;102813.16;5071623;28;19966;-65
2023/06/10 04:06:02;;;;;;;;;;;;;;;19.61;39.78;102814.13;5074480;28;19999;-62
2023/06/10 04:08:28;;;;;;;;;;;;;;;19.62;39.13;102811.25;5075278;28;19925;-65
2023/06/10 04:10:53;;;;;;;;;;;;;;;19.24;40.20;102820.06;5075349;28;19920;-64
2023/06/10 04:13:19;;;;;;;;;;;;;;;19.48;40.36;102812.78;5057378;28;19990;-63
2023/06/10 04:15:45;;;;;;;;;;;;;;;19.99;39.16;102816.06;5074785;28;19920;-65
2023/06/10 04:18:10;;;;;;;;;;;;;;;19.56;39.42;102820.06;5074913;28;19920;-64
2023/06/10 04:20:35;;;;;;;;;;;;;;;19.84;38.69;102822.34;5074832;28;19940;-64
2023/06/10 04:23:01;;;;;;;;;;;;;;;19.80;38.56;102824.56;5057048;28;19925;-64
2023/06/10 04:25:27;;;;;;;;;;;;;;;20.00;38.99;102820.44;5075247;28;20280;-65
2023/06/10 04:27:52;;;;;;;;;;;;;;;20.22;38.74;102823.38;5075102;28;20402;-64
2023/06/10 04:30:18;;;;;;;;;;;;;;;20.04;37.63;102827.19;5074707;28;19920;-64
2023/06/10 04:32:43;;;;;;;;;;;;;;;19.60;37.44;102832.19;5074567;28;20391;-66
2023/06/10 04:35:11;;;;;;;;;;;;;;;19.66;37.99;102827.97;5074400;28;19924;-64
2023/06/10 04:37:36;;;;;;;;;;;;;;;19.90;37.99;102833.31;5074334;28;19928;-64
2023/06/10 04:40:03;;;;;;;;;;;;;;;19.98;37.29;102827.91;5056719;28;19921;-63
2023/06/10 04:42:28;;;;;;;;;;;;;;;19.74;37.75;102825.25;5075624;28;19965;-66
2023/06/10 04:44:53;;;;;;;;;;;;;;;19.89;37.06;102825.38;5056669;28;20023;-65
2023/06/10 04:47:19;;;;;;;;;;;;;;;19.60;38.09;102829.50;5039805;28;20352;-65
2023/06/10 04:49:44;;;;;;;;;;;;;;;19.45;38.85;102826.63;5074263;28;19920;-64
2023/06/10 04:52:09;;;;;;;;;;;;;;;19.72;37.92;102832.69;5074594;28;19920;-65
2023/06/10 04:54:35;;;;;;;;;;;;;;;20.37;36.90;102833.28;5074508;28;19920;-65
2023/06/10 04:57:00;;;;;;;;;;;;;;;20.31;36.10;102833.16;5057757;28;20453;-63
2023/06/10 04:59:26;;;;;;;;;;;;;;;19.69;35.55;102841.16;5073110;28;19974;-65
2023/06/10 05:01:51;;;;;;;;;;;;;;;19.63;36.73;102839.13;5074030;28;19928;-64
2023/06/10 05:04:16;;;;;;;;;;;;;;;19.56;36.30;102848.94;5073836;28;19926;-65
2023/06/10 05:06:42;;;;;;;;;;;;;;;19.22;36.23;102841.84;5073739;28;19928;-63
2023/06/10 05:09:07;;;;;;;;;;;;;;;18.69;36.58;102843.13;5073994;28;19940;-64
2023/06/10 05:11:32;;;;;;;;;;;;;;;18.57;36.40;102852.53;5056594;28;20272;-64
2023/06/10 05:13:58;;;;;;;;;;;;;;;18.09;37.65;102855.88;5074549;28;19924;-64
2023/06/10 05:16:23;;;;;;;;;;;;;;;17.69;38.14;102851.97;5073497;28;19921;-63
2023/06/10 05:18:50;;;;;;;;;;;;;;;17.16;38.78;102854.72;5073784;28;19928;-64
2023/06/10 05:21:16;;;;;;;;;;;;;;;16.47;40.76;102852.63;5073798;28;20405;-63
2023/06/10 05:23:41;;;;;;;;;;;;;;;16.12;41.44;102856.91;5073645;28;19955;-64
2023/06/10 05:26:06;;;;;;;;;;;;;;;15.24;42.96;102859.91;5073653;28;19959;-63
2023/06/10 05:28:32;;;;;;;;;;;;;;;14.33;45.98;102869.06;5074654;28;19920;-65
2023/06/10 05:30:57;;;;;;;;;;;;;;;13.57;47.71;102865.88;5073377;28;19920;-63
2023/06/10 05:33:22;;;;;;;;;;;;;;;13.14;49.10;102858.78;5073367;28;20301;-63
2023/06/10 05:35:48;;;;;;;;;;;;;;;12.87;50.38;102869.09;5055332;28;19920;-67
2023/06/10 05:38:13;;;;;;;;;;;;;;;12.73;50.98;102872.91;5073568;28;19928;-63
2023/06/10 05:40:38;;;;;;;;;;;;;;;12.66;49.82;102869.00;5073333;28;19931;-65
2023/06/10 05:43:04;;;;;;;;;;;;;;;12.48;50.24;102862.50;5074393;28;20023;-63
2023/06/10 05:45:29;;;;;;;;;;;;;;;12.21;51.23;102878.91;5073929;28;19932;-63
2023/06/10 05:47:55;;;;;;;;;;;;;;;12.24;50.53;102878.66;5073561;28;19951;-64
2023/06/10 05:50:20;;;;;;;;;;;;;;;12.32;51.36;102885.09;5073466;28;19972;-65
2023/06/10 05:52:46;;;;;;;;;;;;;;;12.38;51.05;102889.94;5073134;28;20451;-64
2023/06/10 05:55:11;;;;;;;;;;;;;;;12.53;50.97;102882.53;5073161;28;19946;-65
2023/06/10 05:57:36;;;;;;;;;;;;;;;12.62;50.46;102884.44;5073520;28;19920;-65
2023/06/10 06:00:02;;;;;;;;;;;;;;;12.49;51.20;102891.78;5074943;28;19920;-64
2023/06/10 06:02:28;;;;;;;;;;;;;;;12.46;51.34;102894.69;5074491;28;19920;-63
2023/06/10 06:04:54;;;;;;;;;;;;;;;12.47;50.46;102893.72;5073968;28;19920;-67
2023/06/10 06:07:20;;;;;;;;;;;;;;;12.37;51.40;102898.09;5071525;28;19954;-64
2023/06/10 06:09:46;;;;;;;;;;;;;;;12.22;51.63;102899.31;5072910;28;19932;-63
2023/06/10 06:12:11;;;;;;;;;;;;;;;12.19;51.89;102900.41;5072567;28;19920;-63
2023/06/10 06:14:39;;;;;;;;;;;;;;;12.34;50.78;102901.00;5073582;28;20311;-63
2023/06/10 06:17:04;;;;;;;;;;;;;;;12.58;50.41;102883.00;5072616;28;19927;-65
2023/06/10 06:19:29;;;;;;;;;;;;;;;12.74;49.25;102889.78;5072664;28;19924;-65
2023/06/10 06:21:55;;;;;;;;;;;;;;;12.66;48.57;102893.06;5072989;28;19927;-63
2023/06/10 06:24:20;;;;;;;;;;;;;;;12.60;49.94;102886.41;5073257;28;20341;-64
2023/06/10 06:26:45;;;;;;;;;;;;;;;12.64;50.29;102890.53;5072126;28;20387;-64
2023/06/10 06:29:11;;;;;;;;;;;;;;;12.78;48.74;102891.25;5073173;28;19927;-64
2023/06/10 06:31:36;;;;;;;;;;;;;;;12.82;48.57;102898.03;5073492;28;19924;-64
2023/06/10 06:34:01;;;;;;;;;;;;;;;12.76;48.24;102893.19;5072677;28;19920;-64
2023/06/10 06:36:27;;;;;;;;;;;;;;;12.50;47.99;102898.81;5072474;28;20058;-64
2023/06/10 06:38:52;;;;;;;;;;;;;;;12.31;48.54;102901.25;5072139;28;20406;-64
2023/06/10 06:41:17;;;;;;;;;;;;;;;12.24;48.74;102905.38;5072709;28;19921;-65
2023/06/10 06:43:43;;;;;;;;;;;;;;;12.26;49.16;102906.97;5072315;28;20295;-65
2023/06/10 06:46:08;;;;;;;;;;;;;;;12.44;48.85;102898.47;5072041;28;20395;-66
2023/06/10 06:48:34;;;;;;;;;;;;;;;12.47;47.08;102909.75;5071771;28;19943;-62
2023/06/10 06:50:59;;;;;;;;;;;;;;;12.50;47.25;102909.50;5072599;28;19931;-63
2023/06/10 06:53:25;;;;;;;;;;;;;;;12.66;46.62;102896.59;5072757;28;19920;-63
2023/06/10 06:55:50;;;;;;;;;;;;;;;12.86;46.34;102899.47;5072535;28;20022;-67
2023/06/10 06:58:15;;;;;;;;;;;;;;;12.96;46.20;102911.09;5075765;28;20444;-65
2023/06/10 07:00:41;;;;;;;;;;;;;;;12.91;46.52;102914.16;5075266;28;19920;-66
2023/06/10 07:03:06;;;;;;;;;;;;;;;12.92;46.74;102912.34;5075141;28;19928;-65
2023/06/10 07:05:31;;;;;;;;;;;;;;;12.86;47.27;102915.53;5073738;28;19927;-65
2023/06/10 07:07:57;;;;;;;;;;;;;;;12.75;47.22;102921.75;5035405;28;19924;-65
2023/06/10 07:10:24;;;;;;;;;;;;;;;12.62;47.23;102929.03;5034432;28;19925;-65
2023/06/10 07:12:49;;;;;;;;;;;;;;;12.68;46.98;102928.53;5052257;28;19924;-66
2023/06/10 07:15:15;;;;;;;;;;;;;;;12.86;45.39;102926.22;5052113;28;20406;-65
2023/06/10 07:17:40;;;;;;;;;;;;;;;13.22;45.56;102922.38;5052141;28;19947;-67
2023/06/10 07:20:06;;;;;;;;;;;;;;;13.65;45.14;102919.63;5034384;28;19928;-66
2023/06/10 07:22:31;;;;;;;;;;;;;;;14.06;44.10;102925.94;5051927;28;19920;-66
2023/06/10 07:24:57;;;;;;;;;;;;;;;14.29;42.86;102924.78;5051951;28;19927;-66
2023/06/10 07:27:22;;;;;;;;;;;;;;;14.11;43.37;102929.06;5033959;28;20280;-66
2023/06/10 07:29:47;;;;;;;;;;;;;;;14.00;43.73;102934.50;5051994;28;19924;-67
2023/06/10 07:32:13;;;;;;;;;;;;;;;13.70;43.95;102932.63;5035677;28;20359;-65
2023/06/10 07:34:38;;;;;;;;;;;;;;;13.62;43.77;102933.28;5052489;28;19927;-68
2023/06/10 07:37:04;;;;;;;;;;;;;;;13.71;44.43;102937.84;5052758;28;19967;-65
2023/06/10 07:39:29;;;;;;;;;;;;;;;13.86;44.85;102944.56;5054478;28;19970;-67
2023/06/10 07:41:56;;;;;;;;;;;;;;;13.98;44.97;102936.47;5037613;28;19968;-67
2023/06/10 07:44:22;;;;;;;;;;;;;;;13.89;45.00;102933.63;5055646;28;19951;-68
2023/06/10 07:46:48;;;;;;;;;;;;;;;13.69;45.33;102941.63;5057279;28;19921;-65
2023/06/10 07:49:13;;;;;;;;;;;;;;;13.55;46.22;102940.97;5056100;28;19970;-66
2023/06/10 07:51:38;;;;;;;;;;;;;;;13.56;46.72;102942.66;5037909;28;20292;-66
2023/06/10 07:54:04;;;;;;;;;;;;;;;13.42;47.85;102945.66;5055418;28;19921;-67
2023/06/10 07:56:29;;;;;;;;;;;;;;;13.33;48.31;102952.63;5055400;28;19946;-64
2023/06/10 07:58:54;;;;;;;;;;;;;;;13.24;48.58;102956.03;5020924;28;19922;-66
2023/06/10 08:01:20;;;;;;;;;;;;;;;13.16;48.15;102949.59;5055196;28;20375;-65
2023/06/10 08:03:45;;;;;;;;;;;;;;;13.08;48.50;102958.28;5055980;28;20032;-65
2023/06/10 08:06:11;;;;;;;;;;;;;;;13.30;48.77;102957.41;5055111;28;19925;-64
2023/06/10 08:08:42;;;;;;;;;;;;;;;13.79;47.51;102955.94;5055783;28;20288;-64
2023/06/10 08:11:08;;;;;;;;;;;;;;;14.12;47.09;102960.22;5056457;28;19951;-67
2023/06/10 08:13:33;;;;;;;;;;;;;;;14.30;46.06;102952.44;5055660;28;19947;-67
2023/06/10 08:15:58;;;;;;;;;;;;;;;14.21;46.85;102959.47;5055124;28;19929;-66
2023/06/10 08:18:24;;;;;;;;;;;;;;;13.90;46.64;102977.31;5055920;28;20027;-66
2023/06/10 08:20:49;;;;;;;;;;;;;;;13.58;47.06;102961.25;5055046;28;19931;-67
2023/06/10 08:23:14;;;;;;;;;;;;;;;13.40;47.67;102973.53;5054987;28;20383;-68
2023/06/10 08:25:40;;;;;;;;;;;;;;;13.40;47.20;102976.22;5054902;28;19927;-66
2023/06/10 08:28:05;;;;;;;;;;;;;;;13.21;47.01;102974.19;5037020;28;20407;-67
2023/06/10 08:30:30;;;;;;;;;;;;;;;13.12;46.53;102973.09;5054785;28;19921;-66
2023/06/10 08:32:56;;;;;;;;;;;;;;;13.17;46.85;102984.28;5055434;28;19920;-67
2023/06/10 08:35:26;;;;;;;;;;;;;;;13.31;45.73;102978.69;5054016;28;21313;-69
2023/06/10 08:37:51;;;;;;;;;;;;;;;13.43;45.38;102979.47;5036897;28;20123;-66
2023/06/10 08:40:16;;;;;;;;;;;;;;;13.58;45.64;102982.69;5054773;28;19963;-68
2023/06/10 08:43:02;;;;;;;;;;;;;;;13.67;45.62;102987.28;5054676;28;19921;-67
2023/06/10 08:45:29;;;;;;;;;;;;;;;13.74;45.66;102990.28;5036442;28;19975;-67
2023/06/10 08:47:58;;;;;;;;;;;;;;;13.76;45.00;102986.50;5037071;28;19925;-67
2023/06/10 08:50:23;;;;;;;;;;;;;;;13.54;45.87;102992.81;5054011;28;19932;-68
2023/06/10 08:52:50;;;;;;;;;;;;;;;13.54;45.50;102991.94;5055010;28;19920;-67
2023/06/10 08:55:25;;;;;;;;;;;;;;;13.35;45.83;102998.00;5054571;28;20252;-66
2023/06/10 08:57:51;;;;;;;;;;;;;;;13.10;45.93;102991.09;5054464;28;20023;-66
2023/06/10 09:00:16;;;;;;;;;;;;;;;12.94;46.45;102985.28;5054726;28;20371;-64
2023/06/10 09:02:43;;;;;;;;;;;;;;;12.84;45.75;102992.34;5037569;28;19921;-63
2023/06/10 09:05:08;;;;;;;;;;;;;;;12.86;46.54;102990.41;5054836;28;19944;-67
2023/06/10 09:07:36;;;;;;;;;;;;;;;13.00;45.48;102982.09;5049070;28;20375;-66
2023/06/10 09:10:03;;;;;;;;;;;;;;;13.10;44.87;102980.41;5055050;28;19925;-65
2023/06/10 09:12:29;;;;;;;;;;;;;;;13.41;45.22;102981.44;5053869;28;20497;-65
2023/06/10 09:14:55;;;;;;;;;;;;;;;13.76;43.72;102975.78;5054125;28;19921;-64
2023/06/10 09:17:20;;;;;;;;;;;;;;;14.05;42.57;102975.16;5054032;28;19931;-63
2023/06/10 09:19:46;;;;;;;;;;;;;;;14.35;41.54;102985.06;5056111;28;20011;-65
2023/06/10 09:22:11;;;;;;;;;;;;;;;14.45;41.88;102976.09;5053808;28;19920;-64
2023/06/10 09:24:36;;;;;;;;;;;;;;;14.40;42.16;102980.97;5053590;28;19964;-63
2023/06/10 09:27:03;;;;;;;;;;;;;;;14.12;41.72;102987.03;5053457;28;19921;-63
2023/06/10 09:29:29;;;;;;;;;;;;;;;13.84;42.99;102984.03;5053934;28;19920;-64
2023/06/10 09:31:54;;;;;;;;;;;;;;;13.57;42.47;102997.91;5053757;28;20337;-67
2023/06/10 09:34:20;;;;;;;;;;;;;;;13.32;43.31;102999.09;5057121;28;19924;-65
2023/06/10 09:36:45;;;;;;;;;;;;;;;13.17;43.87;102988.75;5053645;28;19928;-65
2023/06/10 09:39:15;;;;;;;;;;;;;;;13.24;43.75;102988.16;5053232;28;19921;-65
2023/06/10 09:41:41;;;;;;;;;;;;;;;13.39;42.43;102987.88;5053748;28;19921;-65
2023/06/10 09:44:14;;;;;;;;;;;;;;;13.56;42.54;102984.66;5053343;28;19947;-63
2023/06/10 09:46:40;;;;;;;;;;;;;;;13.84;42.63;102984.03;5052112;28;19927;-64
2023/06/10 09:49:05;;;;;;;;;;;;;;;14.05;40.75;102983.19;5054137;28;19921;-63
2023/06/10 09:51:31;;;;;;;;;;;;;;;14.04;39.61;102985.00;5053712;28;20395;-65
2023/06/10 09:53:56;;;;;;;;;;;;;;;13.70;40.55;102987.03;5051247;28;19980;-66
2023/06/10 09:56:32;;;;;;;;;;;;;;;13.42;40.40;102987.63;5051870;28;20414;-67
2023/06/10 09:58:57;;;;;;;;;;;;;;;13.29;41.27;102977.91;5052711;28;19925;-65
2023/06/10 10:01:24;;;;;;;;;;;;;;;13.29;40.70;102977.91;5051967;28;21355;-66
2023/06/10 10:03:50;;;;;;;;;;;;;;;13.39;40.63;102982.53;5051962;28;19920;-64
2023/06/10 10:06:16;;;;;;;;;;;;;;;13.31;40.95;102976.00;5056064;28;19925;-64
2023/06/10 10:08:43;;;;;;;;;;;;;;;13.35;41.18;102976.59;5061565;28;19967;-66
2023/06/10 10:11:09;;;;;;;;;;;;;;;13.29;40.41;102972.56;5059464;28;19930;-64
2023/06/10 10:13:35;;;;;;;;;;;;;;;13.27;40.63;102987.06;5066537;28;19927;-67
2023/06/10 10:16:04;;;;;;;;;;;;;;;13.29;40.62;102979.75;5048771;28;19920;-66
2023/06/10 10:18:30;;;;;;;;;;;;;;;13.29;40.78;102969.03;5054894;28;20361;-64
2023/06/10 10:20:57;;;;;;;;;;;;;;;13.35;40.42;102973.06;5068598;28;19920;-64
2023/06/10 10:23:26;;;;;;;;;;;;;;;13.47;39.96;102974.72;5054882;28;19925;-65
2023/06/10 10:25:53;;;;;;;;;;;;;;;13.51;39.21;102986.84;5052677;28;19921;-66
2023/06/10 10:28:20;;;;;;;;;;;;;;;13.44;39.50;102986.53;5053122;28;19975;-65
2023/06/10 10:30:49;;;;;;;;;;;;;;;13.44;39.49;102985.69;5052441;28;19948;-64
2023/06/10 10:33:18;;;;;;;;;;;;;;;13.41;38.83;102985.94;5052600;28;19946;-66
2023/06/10 10:35:43;;;;;;;;;;;;;;;13.36;37.98;102980.97;5054627;28;19928;-66
2023/06/10 10:38:09;;;;;;;;;;;;;;;13.38;38.74;102980.84;5052483;28;19921;-66
2023/06/10 10:40:34;;;;;;;;;;;;;;;13.38;38.86;102978.16;5052487;28;19921;-68
2023/06/10 10:43:00;;;;;;;;;;;;;;;13.47;39.35;102972.03;5052562;28;20021;-66
2023/06/10 10:45:28;;;;;;;;;;;;;;;13.61;39.17;102979.78;5052476;28;19921;-66
2023/06/10 10:47:55;;;;;;;;;;;;;;;13.78;39.05;102979.19;5034373;28;19920;-65
2023/06/10 10:50:21;;;;;;;;;;;;;;;13.80;38.97;102977.22;5053064;28;19925;-64
2023/06/10 10:52:58;;;;;;;;;;;;;;;13.76;38.12;102967.75;5035190;28;19927;-65
2023/06/10 10:55:24;;;;;;;;;;;;;;;13.68;38.16;102983.63;5052472;28;20023;-65
2023/06/10 10:57:59;;;;;;;;;;;;;;;13.57;37.64;102970.28;5034943;28;20374;-64
2023/06/10 11:00:27;;;;;;;;;;;;;;;13.62;38.97;102974.28;5052625;28;19921;-65
2023/06/10 11:02:53;;;;;;;;;;;;;;;13.71;38.44;102969.97;5051984;28;20000;-67
2023/06/10 11:05:30;;;;;;;;;;;;;;;13.74;38.35;102974.22;5052469;28;19921;-64
2023/06/10 11:07:56;;;;;;;;;;;;;;;13.80;37.97;102971.88;5053820;28;19975;-67
2023/06/10 11:10:31;;;;;;;;;;;;;;;13.90;38.46;102972.81;5034873;28;19952;-69
2023/06/10 11:12:56;;;;;;;;;;;;;;;13.93;37.54;102975.22;5052741;28;19927;-66
2023/06/10 11:15:23;;;;;;;;;;;;;;;13.92;37.88;102970.00;5055982;28;19921;-66
2023/06/10 11:18:07;;;;;;;;;;;;;;;13.90;37.96;102964.78;5056250;28;19921;-66
2023/06/10 11:20:48;;;;;;;;;;;;;;;13.92;37.62;102968.16;5039184;28;19925;-64
2023/06/10 11:23:34;;;;;;;;;;;;;;;13.90;37.93;102962.09;5057217;28;19925;-64
2023/06/10 11:26:16;;;;;;;;;;;;;;;13.93;38.25;102960.97;5056574;28;19921;-66
2023/06/10 11:28:42;;;;;;;;;;;;;;;13.98;37.79;102965.94;5055845;28;20375;-66
2023/06/10 11:31:08;;;;;;;;;;;;;;;14.03;38.15;102971.75;5038046;28;19964;-68
2023/06/10 11:33:38;;;;;;;;;;;;;;;13.94;37.43;102978.75;5055875;28;19921;-68
2023/06/10 11:36:06;;;;;;;;;;;;;;;13.87;37.13;102972.19;5055602;28;20405;-66
2023/06/10 11:38:31;;;;;;;;;;;;;;;13.73;37.35;102969.84;5057314;28;19925;-66
2023/06/10 11:40:57;;;;;;;;;;;;;;;13.77;38.02;102966.78;5055650;28;20446;-65
2023/06/10 11:43:22;;;;;;;;;;;;;;;13.89;37.82;102971.13;5055654;28;19920;-66
2023/06/10 11:45:53;;;;;;;;;;;;;;;13.86;37.75;102971.34;5055571;28;19986;-68
2023/06/10 11:48:18;;;;;;;;;;;;;;;13.85;38.02;102969.66;5055436;28;20019;-71
2023/06/10 11:50:44;;;;;;;;;;;;;;;13.89;38.30;102980.97;5055525;28;19960;-67
2023/06/10 11:53:09;;;;;;;;;;;;;;;13.98;38.27;102984.69;5055892;28;19931;-68
2023/06/10 11:55:44;;;;;;;;;;;;;;;13.95;37.30;102975.94;5037647;28;19920;-68
2023/06/10 11:58:16;;;;;;;;;;;;;;;13.88;38.55;102972.09;5054727;28;20007;-68
2023/06/10 12:00:45;;;;;;;;;;;;;;;14.02;38.39;102975.41;5054949;28;19924;-67
2023/06/10 12:03:11;;;;;;;;;;;;;;;13.86;38.22;102979.38;5054951;28;19921;-66
2023/06/10 12:05:36;;;;;;;;;;;;;;;13.87;38.45;102983.75;5055503;28;19928;-67
2023/06/10 12:08:11;;;;;;;;;;;;;;;13.89;38.11;102978.31;5057544;28;19950;-64
2023/06/10 12:10:41;;;;;;;;;;;;;;;13.86;38.31;102970.50;5037036;28;19924;-66
2023/06/10 12:13:07;;;;;;;;;;;;;;;13.82;38.32;102980.63;5055066;28;20016;-62
2023/06/10 12:15:33;;;;;;;;;;;;;;;13.82;38.68;102969.06;5037013;28;19921;-65
2023/06/10 12:17:58;;;;;;;;;;;;;;;13.80;38.87;102977.22;5054862;28;19966;-65
2023/06/10 12:20:25;;;;;;;;;;;;;;;13.85;39.15;102975.00;5055151;28;19920;-66
2023/06/10 12:22:50;;;;;;;;;;;;;;;13.90;38.93;102974.63;5056522;28;20353;-66
2023/06/10 12:25:15;;;;;;;;;;;;;;;14.00;39.01;102972.88;5054670;28;19924;-63
2023/06/10 12:27:50;;;;;;;;;;;;;;;14.09;38.47;102977.44;5054818;28;20414;-65
2023/06/10 12:30:18;;;;;;;;;;;;;;;14.15;38.52;102976.03;5056271;28;19920;-66
2023/06/10 12:32:44;;;;;;;;;;;;;;;14.10;38.05;102962.19;5055726;28;19921;-65
2023/06/10 12:35:12;;;;;;;;;;;;;;;13.97;37.61;102966.94;5055058;28;20145;-63
2023/06/10 12:37:38;;;;;;;;;;;;;;;13.93;38.94;102966.34;5056149;28;19920;-63
2023/06/10 12:40:05;;;;;;;;;;;;;;;13.98;37.91;102964.13;5055976;28;20023;-65